ADDS METAR Data INFO
IDs: Format: Raw Decoded Include TAF

Data at: 0731 UTC 18 Oct 2017

KBNA 180653Z 17003KT 10SM CLR 08/07 A3027 RMK AO2 SLP249 T00780067
KBNA 180553Z 19003KT 10SM CLR 08/07 A3028 RMK AO2 SLP250 T00830067 10167 20083 402110056 56003
KBNA 180453Z 00000KT 10SM CLR 09/07 A3028 RMK AO2 SLP251 T00940072
KBNA 180353Z 18003KT 10SM CLR 10/07 A3028 RMK AO2 SLP252 T01000072
KBNA 180253Z 00000KT 10SM FEW250 11/07 A3028 RMK AO2 SLP253 T01060072 53006
KBNA 180153Z 00000KT 10SM FEW250 12/06 A3027 RMK AO2 SLP251 T01220061
KBNA 180053Z 00000KT 10SM BKN250 16/06 A3027 RMK AO2 SLP249 T01560061
KBNA 172353Z 03004KT 10SM BKN250 16/05 A3027 RMK AO2 SLP248 T01610050 10211 20161 53000
KBNA 172253Z 02003KT 10SM BKN250 18/04 A3025 RMK AO2 SLP243 T01830044
KBNA 172153Z 15004KT 10SM BKN250 19/03 A3025 RMK AO2 SLP243 T01890028
KBNA 172053Z 10003KT 10SM SCT250 20/02 A3026 RMK AO2 SLP247 T02000022 56023
KBNA 171953Z 03003KT 10SM FEW250 21/02 A3028 RMK AO2 SLP250 T02060017
KBNA 171853Z 00000KT 10SM FEW200 SCT250 20/02 A3030 RMK AO2 SLP258 T02000022 $
KBNA 171753Z 10003KT 10SM FEW200 FEW250 19/04 A3033 RMK AO2 SLP270 T01890039 10189 20056 58022
KBNA 171653Z 06005KT 10SM FEW250 18/04 A3036 RMK AO2 SLP279 T01780039
KBNA 171553Z VRB06KT 10SM FEW250 17/05 A3039 RMK AO2 SLP288 T01670050
KBNA 171453Z 09003KT 10SM CLR 14/08 A3040 RMK AO2 SLP292 T01390078 51015
KBNA 171353Z 00000KT 10SM CLR 11/07 A3039 RMK AO2 SLP292 T01110072
KBNA 171253Z 00000KT 10SM BCFG CLR 07/06 A3037 RMK AO2 SLP284 BCFG E T00670056
KBNA 171153Z 00000KT 10SM BCFG CLR 06/04 A3035 RMK AO2 SLP278 BCFG E T00560039 10089 20056 51010
KBNA 171053Z 00000KT 10SM CLR 06/04 A3034 RMK AO2 SLP274 T00610044
KBNA 170953Z 00000KT 10SM CLR 06/05 A3033 RMK AO2 SLP270 T00610050
KBNA 170853Z 00000KT 6SM BR CLR 07/06 A3032 RMK AO2 SLP266 T00720056 53002
KBNA 170753Z 33003KT 9SM CLR 08/06 A3032 RMK AO2 SLP265 T00780061
KBNA 170653Z 00000KT 10SM CLR 07/06 A3032 RMK AO2 SLP264 T00720056
KBNA 170553Z 03003KT 10SM CLR 08/06 A3032 RMK AO2 SLP264 T00830061 10139 20083 401940083 50002
KBNA 170453Z 00000KT 10SM CLR 09/06 A3032 RMK AO2 SLP265 T00890056
KBNA 170353Z 36004KT 10SM CLR 12/06 A3032 RMK AO2 SLP266 T01170061
KBNA 170253Z 02005KT 10SM CLR 11/06 A3031 RMK AO2 SLP262 T01110056 51007
KBNA 170153Z 02006KT 10SM CLR 12/06 A3030 RMK AO2 SLP260 T01220056
KBNA 170053Z 02008KT 10SM CLR 13/06 A3030 RMK AO2 SLP260 T01280056
KBNA 162353Z 01007KT 10SM CLR 14/05 A3029 RMK AO2 SLP255 T01390050 10194 20139 53008
KBNA 162253Z 01010KT 10SM FEW050 16/04 A3028 RMK AO2 SLP251 T01610044
KBNA 162153Z 02013KT 10SM FEW050 18/04 A3026 RMK AO2 SLP245 T01780044
KBNA 162053Z 02013KT 10SM FEW050 19/04 A3026 RMK AO2 SLP246 T01890044 56018
KBNA 161953Z 03010G18KT 10SM FEW050 19/04 A3027 RMK AO2 SLP249 T01890044